Amalia, New Mexico
Current Conditions -  °F | °C
As of 8:55 AM on Thursday 27 Nov 2014 (Local Time) from KSKX Reporting Station
Clear Clear  
Wind Chill: -1°   Ceiling: Unl
Heat Index: -1°   Visibility: 10mi
Dew Point: -4°   Wind: 3mph
Humidity: 80%   Direction: 340°NNW
Pressure: 30.52"   Gusts: NA
Location:  36.94°N, 105.45°W
Report Text: KSKX 271555Z AUTO 34003KT 10SM CLR M01/M04 A3052 RMK AO1
Loading
Personal Weather Stations






























Interactive Weather Map New forecast layout! Learn more

10-Day Weather Forecast

Advertisements
Track Severe Weather on mobile